sensor_id;sensor_type;location;lat;lon;timestamp;P1;durP1;ratioP1;P2;durP2;ratioP2
46845;SDS011;33947;46.804;134.252;2023-06-19T00:01:42;4.38;;;1.73;;
46845;SDS011;33947;46.804;134.252;2023-06-19T00:04:48;3.47;;;1.65;;
46845;SDS011;33947;46.804;134.252;2023-06-19T00:07:54;1.88;;;1.30;;
46845;SDS011;33947;46.804;134.252;2023-06-19T00:11:02;2.05;;;1.65;;
46845;SDS011;33947;46.804;134.252;2023-06-19T00:14:06;1.75;;;1.58;;
46845;SDS011;33947;46.804;134.252;2023-06-19T00:17:21;4.38;;;1.90;;
46845;SDS011;33947;46.804;134.252;2023-06-19T00:20:31;2.10;;;1.52;;
46845;SDS011;33947;46.804;134.252;2023-06-19T00:23:40;1.52;;;1.23;;
46845;SDS011;33947;46.804;134.252;2023-06-19T00:26:46;3.70;;;1.80;;
46845;SDS011;33947;46.804;134.252;2023-06-19T00:29:52;6.70;;;2.20;;
46845;SDS011;33947;46.804;134.252;2023-06-19T00:33:02;1.50;;;1.40;;
46845;SDS011;33947;46.804;134.252;2023-06-19T00:36:09;1.48;;;1.38;;
46845;SDS011;33947;46.804;134.252;2023-06-19T00:39:16;7.30;;;2.45;;
46845;SDS011;33947;46.804;134.252;2023-06-19T00:42:22;4.60;;;1.58;;
46845;SDS011;33947;46.804;134.252;2023-06-19T00:45:28;2.08;;;1.73;;
46845;SDS011;33947;46.804;134.252;2023-06-19T00:48:37;1.52;;;1.42;;
46845;SDS011;33947;46.804;134.252;2023-06-19T00:51:51;3.90;;;1.98;;
46845;SDS011;33947;46.804;134.252;2023-06-19T00:54:56;2.22;;;1.50;;
46845;SDS011;33947;46.804;134.252;2023-06-19T00:58:06;4.20;;;2.10;;
46845;SDS011;33947;46.804;134.252;2023-06-19T01:01:15;5.18;;;2.10;;
46845;SDS011;33947;46.804;134.252;2023-06-19T01:04:21;3.25;;;1.80;;
46845;SDS011;33947;46.804;134.252;2023-06-19T01:07:52;2.90;;;2.10;;
46845;SDS011;33947;46.804;134.252;2023-06-19T01:11:03;3.85;;;1.77;;
46845;SDS011;33947;46.804;134.252;2023-06-19T01:14:39;3.28;;;1.20;;
46845;SDS011;33947;46.804;134.252;2023-06-19T01:18:26;2.40;;;1.52;;
46845;SDS011;33947;46.804;134.252;2023-06-19T01:21:33;1.85;;;1.48;;
46845;SDS011;33947;46.804;134.252;2023-06-19T01:24:40;3.45;;;1.50;;
46845;SDS011;33947;46.804;134.252;2023-06-19T01:27:46;2.60;;;1.42;;
46845;SDS011;33947;46.804;134.252;2023-06-19T01:30:53;2.88;;;1.42;;
46845;SDS011;33947;46.804;134.252;2023-06-19T01:34:04;5.47;;;1.45;;
46845;SDS011;33947;46.804;134.252;2023-06-19T01:37:14;2.03;;;1.40;;
46845;SDS011;33947;46.804;134.252;2023-06-19T01:40:21;1.70;;;1.38;;
46845;SDS011;33947;46.804;134.252;2023-06-19T01:43:33;3.10;;;1.45;;
46845;SDS011;33947;46.804;134.252;2023-06-19T01:46:39;5.13;;;1.80;;
46845;SDS011;33947;46.804;134.252;2023-06-19T01:49:46;3.40;;;1.50;;
46845;SDS011;33947;46.804;134.252;2023-06-19T01:52:53;1.38;;;1.27;;
46845;SDS011;33947;46.804;134.252;2023-06-19T01:56:00;7.95;;;2.28;;
46845;SDS011;33947;46.804;134.252;2023-06-19T01:59:06;1.50;;;1.40;;
46845;SDS011;33947;46.804;134.252;2023-06-19T02:02:13;4.30;;;1.50;;
46845;SDS011;33947;46.804;134.252;2023-06-19T02:05:19;3.30;;;1.45;;
46845;SDS011;33947;46.804;134.252;2023-06-19T02:08:23;1.30;;;1.20;;
46845;SDS011;33947;46.804;134.252;2023-06-19T02:11:30;1.50;;;1.20;;
46845;SDS011;33947;46.804;134.252;2023-06-19T02:14:37;6.32;;;1.55;;
46845;SDS011;33947;46.804;134.252;2023-06-19T02:17:42;4.22;;;1.60;;
46845;SDS011;33947;46.804;134.252;2023-06-19T02:25:23;5.00;;;2.33;;
46845;SDS011;33947;46.804;134.252;2023-06-19T02:29:55;2.53;;;1.40;;
46845;SDS011;33947;46.804;134.252;2023-06-19T02:34:16;7.03;;;2.13;;
46845;SDS011;33947;46.804;134.252;2023-06-19T02:38:26;2.92;;;1.70;;
46845;SDS011;33947;46.804;134.252;2023-06-19T02:42:42;1.85;;;1.35;;
46845;SDS011;33947;46.804;134.252;2023-06-19T02:45:50;1.98;;;1.38;;
46845;SDS011;33947;46.804;134.252;2023-06-19T02:48:57;5.47;;;1.80;;
46845;SDS011;33947;46.804;134.252;2023-06-19T02:52:03;1.75;;;1.40;;
46845;SDS011;33947;46.804;134.252;2023-06-19T02:55:20;1.55;;;1.45;;
46845;SDS011;33947;46.804;134.252;2023-06-19T02:58:37;1.40;;;1.30;;
46845;SDS011;33947;46.804;134.252;2023-06-19T03:01:48;2.15;;;1.60;;
46845;SDS011;33947;46.804;134.252;2023-06-19T03:04:54;5.88;;;1.58;;
46845;SDS011;33947;46.804;134.252;2023-06-19T03:08:01;3.75;;;1.70;;
46845;SDS011;33947;46.804;134.252;2023-06-19T03:11:12;2.80;;;1.42;;
46845;SDS011;33947;46.804;134.252;2023-06-19T03:14:27;1.50;;;1.40;;
46845;SDS011;33947;46.804;134.252;2023-06-19T03:17:37;2.05;;;1.50;;
46845;SDS011;33947;46.804;134.252;2023-06-19T03:24:22;1.67;;;1.55;;
46845;SDS011;33947;46.804;134.252;2023-06-19T03:27:37;4.93;;;1.60;;
46845;SDS011;33947;46.804;134.252;2023-06-19T03:30:43;3.33;;;1.67;;
46845;SDS011;33947;46.804;134.252;2023-06-19T03:33:53;6.70;;;2.40;;
46845;SDS011;33947;46.804;134.252;2023-06-19T03:37:00;4.93;;;1.80;;
46845;SDS011;33947;46.804;134.252;2023-06-19T03:40:07;13.00;;;2.50;;
46845;SDS011;33947;46.804;134.252;2023-06-19T03:43:22;6.40;;;1.80;;
46845;SDS011;33947;46.804;134.252;2023-06-19T03:46:29;5.28;;;2.05;;
46845;SDS011;33947;46.804;134.252;2023-06-19T03:49:35;3.65;;;1.60;;
46845;SDS011;33947;46.804;134.252;2023-06-19T03:52:41;5.78;;;2.17;;
46845;SDS011;33947;46.804;134.252;2023-06-19T03:55:48;2.15;;;1.50;;
46845;SDS011;33947;46.804;134.252;2023-06-19T03:58:52;3.40;;;1.50;;
46845;SDS011;33947;46.804;134.252;2023-06-19T04:02:01;7.55;;;2.03;;
46845;SDS011;33947;46.804;134.252;2023-06-19T04:05:07;1.70;;;1.40;;
46845;SDS011;33947;46.804;134.252;2023-06-19T04:08:13;2.03;;;1.60;;
46845;SDS011;33947;46.804;134.252;2023-06-19T04:11:21;2.63;;;1.77;;
46845;SDS011;33947;46.804;134.252;2023-06-19T04:14:28;3.72;;;1.60;;
46845;SDS011;33947;46.804;134.252;2023-06-19T04:17:35;7.07;;;1.83;;
46845;SDS011;33947;46.804;134.252;2023-06-19T04:20:39;3.20;;;1.67;;
46845;SDS011;33947;46.804;134.252;2023-06-19T04:27:42;1.83;;;1.60;;
46845;SDS011;33947;46.804;134.252;2023-06-19T04:30:51;15.88;;;2.40;;
46845;SDS011;33947;46.804;134.252;2023-06-19T04:34:05;1.80;;;1.58;;
46845;SDS011;33947;46.804;134.252;2023-06-19T04:37:11;3.05;;;1.85;;
46845;SDS011;33947;46.804;134.252;2023-06-19T04:40:16;3.20;;;1.67;;
46845;SDS011;33947;46.804;134.252;2023-06-19T04:43:24;3.50;;;1.80;;
46845;SDS011;33947;46.804;134.252;2023-06-19T04:46:30;4.57;;;1.60;;
46845;SDS011;33947;46.804;134.252;2023-06-19T04:49:36;2.33;;;1.70;;
46845;SDS011;33947;46.804;134.252;2023-06-19T04:52:42;4.05;;;1.80;;
46845;SDS011;33947;46.804;134.252;2023-06-19T04:55:48;2.92;;;1.70;;
46845;SDS011;33947;46.804;134.252;2023-06-19T04:58:57;2.03;;;1.67;;
46845;SDS011;33947;46.804;134.252;2023-06-19T05:02:05;1.70;;;1.60;;
46845;SDS011;33947;46.804;134.252;2023-06-19T05:05:12;3.47;;;1.83;;
46845;SDS011;33947;46.804;134.252;2023-06-19T05:08:20;4.43;;;1.65;;
46845;SDS011;33947;46.804;134.252;2023-06-19T05:11:26;2.28;;;1.35;;
46845;SDS011;33947;46.804;134.252;2023-06-19T05:14:37;2.20;;;1.83;;
46845;SDS011;33947;46.804;134.252;2023-06-19T05:17:44;6.75;;;1.90;;
46845;SDS011;33947;46.804;134.252;2023-06-19T05:20:53;1.95;;;1.55;;
46845;SDS011;33947;46.804;134.252;2023-06-19T05:24:02;5.82;;;1.85;;
46845;SDS011;33947;46.804;134.252;2023-06-19T05:27:12;4.40;;;1.75;;
46845;SDS011;33947;46.804;134.252;2023-06-19T05:30:20;3.22;;;2.65;;
46845;SDS011;33947;46.804;134.252;2023-06-19T05:33:27;27.30;;;2.30;;
46845;SDS011;33947;46.804;134.252;2023-06-19T05:36:32;7.63;;;2.42;;
46845;SDS011;33947;46.804;134.252;2023-06-19T05:39:39;4.15;;;1.90;;
46845;SDS011;33947;46.804;134.252;2023-06-19T05:42:45;2.58;;;1.73;;
46845;SDS011;33947;46.804;134.252;2023-06-19T05:45:53;4.03;;;1.70;;
46845;SDS011;33947;46.804;134.252;2023-06-19T05:49:03;9.20;;;4.75;;
46845;SDS011;33947;46.804;134.252;2023-06-19T05:52:10;16.90;;;8.95;;
46845;SDS011;33947;46.804;134.252;2023-06-19T05:55:16;6.80;;;3.90;;
46845;SDS011;33947;46.804;134.252;2023-06-19T05:58:23;5.00;;;2.20;;
46845;SDS011;33947;46.804;134.252;2023-06-19T06:01:30;3.85;;;2.17;;
46845;SDS011;33947;46.804;134.252;2023-06-19T06:04:38;9.05;;;2.90;;
46845;SDS011;33947;46.804;134.252;2023-06-19T06:07:43;3.20;;;2.03;;
46845;SDS011;33947;46.804;134.252;2023-06-19T06:10:48;4.60;;;1.75;;
46845;SDS011;33947;46.804;134.252;2023-06-19T06:13:55;3.42;;;1.55;;
46845;SDS011;33947;46.804;134.252;2023-06-19T06:17:04;8.35;;;2.50;;
46845;SDS011;33947;46.804;134.252;2023-06-19T06:20:11;6.13;;;2.10;;
46845;SDS011;33947;46.804;134.252;2023-06-19T06:23:17;10.05;;;2.60;;
46845;SDS011;33947;46.804;134.252;2023-06-19T06:26:23;6.10;;;2.33;;
46845;SDS011;33947;46.804;134.252;2023-06-19T06:32:58;14.32;;;4.38;;
46845;SDS011;33947;46.804;134.252;2023-06-19T06:36:04;30.23;;;8.38;;
46845;SDS011;33947;46.804;134.252;2023-06-19T06:39:12;15.35;;;4.72;;
46845;SDS011;33947;46.804;134.252;2023-06-19T06:42:18;22.00;;;3.97;;
46845;SDS011;33947;46.804;134.252;2023-06-19T06:45:25;18.40;;;3.88;;
46845;SDS011;33947;46.804;134.252;2023-06-19T06:48:32;12.43;;;3.63;;
46845;SDS011;33947;46.804;134.252;2023-06-19T06:51:38;16.25;;;2.63;;
46845;SDS011;33947;46.804;134.252;2023-06-19T06:54:44;13.07;;;3.60;;
46845;SDS011;33947;46.804;134.252;2023-06-19T06:57:50;5.82;;;2.20;;
46845;SDS011;33947;46.804;134.252;2023-06-19T07:00:56;9.10;;;2.42;;
46845;SDS011;33947;46.804;134.252;2023-06-19T07:04:03;9.10;;;2.30;;
46845;SDS011;33947;46.804;134.252;2023-06-19T07:07:09;4.43;;;2.20;;
46845;SDS011;33947;46.804;134.252;2023-06-19T07:10:15;3.88;;;2.03;;
46845;SDS011;33947;46.804;134.252;2023-06-19T07:13:21;4.45;;;1.85;;
46845;SDS011;33947;46.804;134.252;2023-06-19T07:16:27;3.85;;;2.25;;
46845;SDS011;33947;46.804;134.252;2023-06-19T07:19:34;7.60;;;2.83;;
46845;SDS011;33947;46.804;134.252;2023-06-19T07:22:40;3.28;;;1.90;;
46845;SDS011;33947;46.804;134.252;2023-06-19T07:25:46;5.53;;;2.13;;
46845;SDS011;33947;46.804;134.252;2023-06-19T07:28:55;4.53;;;1.80;;
46845;SDS011;33947;46.804;134.252;2023-06-19T07:32:01;8.65;;;2.20;;
46845;SDS011;33947;46.804;134.252;2023-06-19T07:35:09;5.93;;;2.10;;
46845;SDS011;33947;46.804;134.252;2023-06-19T07:38:19;4.25;;;1.88;;
46845;SDS011;33947;46.804;134.252;2023-06-19T07:41:24;3.85;;;2.13;;
46845;SDS011;33947;46.804;134.252;2023-06-19T07:44:30;4.35;;;2.10;;
46845;SDS011;33947;46.804;134.252;2023-06-19T07:47:37;4.00;;;1.85;;
46845;SDS011;33947;46.804;134.252;2023-06-19T07:50:46;1.85;;;1.50;;
46845;SDS011;33947;46.804;134.252;2023-06-19T07:53:52;3.92;;;1.73;;
46845;SDS011;33947;46.804;134.252;2023-06-19T07:57:01;2.45;;;2.03;;
46845;SDS011;33947;46.804;134.252;2023-06-19T08:00:07;9.18;;;1.98;;
46845;SDS011;33947;46.804;134.252;2023-06-19T08:03:16;6.35;;;2.00;;
46845;SDS011;33947;46.804;134.252;2023-06-19T08:06:22;4.28;;;2.10;;
46845;SDS011;33947;46.804;134.252;2023-06-19T08:09:28;6.63;;;2.47;;
46845;SDS011;33947;46.804;134.252;2023-06-19T08:12:34;6.30;;;2.28;;
46845;SDS011;33947;46.804;134.252;2023-06-19T08:15:49;5.30;;;2.10;;
46845;SDS011;33947;46.804;134.252;2023-06-19T08:19:11;5.57;;;2.20;;
46845;SDS011;33947;46.804;134.252;2023-06-19T08:22:25;9.57;;;2.03;;
46845;SDS011;33947;46.804;134.252;2023-06-19T08:25:36;4.70;;;2.30;;
46845;SDS011;33947;46.804;134.252;2023-06-19T08:28:54;4.95;;;2.10;;
46845;SDS011;33947;46.804;134.252;2023-06-19T08:32:55;4.13;;;2.22;;
46845;SDS011;33947;46.804;134.252;2023-06-19T08:37:44;7.78;;;2.30;;
46845;SDS011;33947;46.804;134.252;2023-06-19T08:42:37;6.63;;;2.00;;
46845;SDS011;33947;46.804;134.252;2023-06-19T08:47:45;8.73;;;2.05;;
46845;SDS011;33947;46.804;134.252;2023-06-19T08:56:15;17.20;;;2.83;;
46845;SDS011;33947;46.804;134.252;2023-06-19T09:00:10;3.97;;;2.00;;
46845;SDS011;33947;46.804;134.252;2023-06-19T09:03:21;6.35;;;2.30;;
46845;SDS011;33947;46.804;134.252;2023-06-19T09:06:27;6.85;;;2.28;;
46845;SDS011;33947;46.804;134.252;2023-06-19T09:09:33;3.90;;;1.83;;
46845;SDS011;33947;46.804;134.252;2023-06-19T09:12:43;7.72;;;3.72;;
46845;SDS011;33947;46.804;134.252;2023-06-19T09:16:06;6.88;;;3.40;;
46845;SDS011;33947;46.804;134.252;2023-06-19T09:19:13;9.63;;;2.95;;
46845;SDS011;33947;46.804;134.252;2023-06-19T09:22:28;1.40;;;1.30;;
46845;SDS011;33947;46.804;134.252;2023-06-19T09:25:54;14.15;;;2.30;;
46845;SDS011;33947;46.804;134.252;2023-06-19T09:29:12;3.30;;;1.67;;
46845;SDS011;33947;46.804;134.252;2023-06-19T09:32:41;17.73;;;2.95;;
46845;SDS011;33947;46.804;134.252;2023-06-19T09:35:52;6.80;;;2.35;;
46845;SDS011;33947;46.804;134.252;2023-06-19T09:42:45;6.97;;;2.10;;
46845;SDS011;33947;46.804;134.252;2023-06-19T09:46:45;5.53;;;2.00;;
46845;SDS011;33947;46.804;134.252;2023-06-19T09:50:39;6.95;;;2.22;;
46845;SDS011;33947;46.804;134.252;2023-06-19T09:54:35;10.65;;;2.35;;
46845;SDS011;33947;46.804;134.252;2023-06-19T10:04:04;24.75;;;3.08;;
46845;SDS011;33947;46.804;134.252;2023-06-19T10:07:33;12.23;;;2.75;;
46845;SDS011;33947;46.804;134.252;2023-06-19T10:10:47;21.00;;;3.25;;
46845;SDS011;33947;46.804;134.252;2023-06-19T10:14:05;7.30;;;2.20;;
46845;SDS011;33947;46.804;134.252;2023-06-19T10:17:18;15.80;;;2.88;;
46845;SDS011;33947;46.804;134.252;2023-06-19T10:20:28;4.05;;;2.22;;
46845;SDS011;33947;46.804;134.252;2023-06-19T10:23:37;8.98;;;2.97;;
46845;SDS011;33947;46.804;134.252;2023-06-19T10:26:43;16.48;;;3.47;;
46845;SDS011;33947;46.804;134.252;2023-06-19T10:29:53;9.70;;;2.83;;
46845;SDS011;33947;46.804;134.252;2023-06-19T10:33:14;10.60;;;2.90;;
46845;SDS011;33947;46.804;134.252;2023-06-19T10:36:25;23.13;;;3.85;;
46845;SDS011;33947;46.804;134.252;2023-06-19T10:40:09;6.32;;;2.80;;
46845;SDS011;33947;46.804;134.252;2023-06-19T10:47:24;8.65;;;3.25;;
46845;SDS011;33947;46.804;134.252;2023-06-19T10:51:21;25.10;;;5.80;;
46845;SDS011;33947;46.804;134.252;2023-06-19T10:55:54;7.65;;;4.07;;
46845;SDS011;33947;46.804;134.252;2023-06-19T10:59:50;8.65;;;3.22;;
46845;SDS011;33947;46.804;134.252;2023-06-19T11:04:21;16.75;;;8.18;;
46845;SDS011;33947;46.804;134.252;2023-06-19T11:07:49;31.70;;;5.00;;
46845;SDS011;33947;46.804;134.252;2023-06-19T11:18:38;18.13;;;7.93;;
46845;SDS011;33947;46.804;134.252;2023-06-19T11:21:50;17.17;;;6.50;;
46845;SDS011;33947;46.804;134.252;2023-06-19T11:25:09;18.65;;;6.75;;
46845;SDS011;33947;46.804;134.252;2023-06-19T11:28:18;14.63;;;7.25;;
46845;SDS011;33947;46.804;134.252;2023-06-19T11:31:27;17.63;;;7.20;;
46845;SDS011;33947;46.804;134.252;2023-06-19T11:34:36;23.83;;;8.18;;
46845;SDS011;33947;46.804;134.252;2023-06-19T11:37:43;24.90;;;7.10;;
46845;SDS011;33947;46.804;134.252;2023-06-19T11:40:52;20.08;;;6.65;;
46845;SDS011;33947;46.804;134.252;2023-06-19T11:47:43;18.90;;;6.45;;
46845;SDS011;33947;46.804;134.252;2023-06-19T11:50:52;25.23;;;6.28;;
46845;SDS011;33947;46.804;134.252;2023-06-19T11:54:04;23.88;;;6.28;;
46845;SDS011;33947;46.804;134.252;2023-06-19T11:57:13;16.10;;;6.32;;
46845;SDS011;33947;46.804;134.252;2023-06-19T12:00:19;18.58;;;5.68;;
46845;SDS011;33947;46.804;134.252;2023-06-19T12:03:23;18.38;;;5.78;;
46845;SDS011;33947;46.804;134.252;2023-06-19T12:06:31;17.45;;;6.38;;
46845;SDS011;33947;46.804;134.252;2023-06-19T12:09:40;19.50;;;5.32;;
46845;SDS011;33947;46.804;134.252;2023-06-19T12:12:46;25.30;;;5.93;;
46845;SDS011;33947;46.804;134.252;2023-06-19T12:15:52;19.42;;;5.68;;
46845;SDS011;33947;46.804;134.252;2023-06-19T12:18:59;23.92;;;5.72;;
46845;SDS011;33947;46.804;134.252;2023-06-19T12:22:05;19.60;;;5.50;;
46845;SDS011;33947;46.804;134.252;2023-06-19T12:25:11;25.77;;;5.05;;
46845;SDS011;33947;46.804;134.252;2023-06-19T12:28:23;10.65;;;3.70;;
46845;SDS011;33947;46.804;134.252;2023-06-19T12:42:00;11.98;;;3.90;;
46845;SDS011;33947;46.804;134.252;2023-06-19T12:45:29;12.18;;;4.35;;
46845;SDS011;33947;46.804;134.252;2023-06-19T12:48:38;13.13;;;4.80;;
46845;SDS011;33947;46.804;134.252;2023-06-19T12:52:50;25.60;;;6.53;;
46845;SDS011;33947;46.804;134.252;2023-06-19T12:56:50;36.03;;;12.93;;
46845;SDS011;33947;46.804;134.252;2023-06-19T13:01:29;33.70;;;16.35;;
46845;SDS011;33947;46.804;134.252;2023-06-19T13:16:13;12.75;;;6.50;;
46845;SDS011;33947;46.804;134.252;2023-06-19T13:25:03;10.50;;;3.60;;
46845;SDS011;33947;46.804;134.252;2023-06-19T13:29:33;7.75;;;2.80;;
46845;SDS011;33947;46.804;134.252;2023-06-19T13:33:53;9.00;;;3.60;;
46845;SDS011;33947;46.804;134.252;2023-06-19T13:38:01;5.40;;;3.15;;
46845;SDS011;33947;46.804;134.252;2023-06-19T13:42:11;4.40;;;2.80;;
46845;SDS011;33947;46.804;134.252;2023-06-19T13:51:22;6.25;;;3.08;;
46845;SDS011;33947;46.804;134.252;2023-06-19T13:54:52;7.72;;;3.42;;
46845;SDS011;33947;46.804;134.252;2023-06-19T13:58:02;7.70;;;3.55;;
46845;SDS011;33947;46.804;134.252;2023-06-19T14:01:08;8.77;;;3.30;;
46845;SDS011;33947;46.804;134.252;2023-06-19T14:04:17;16.38;;;3.60;;
46845;SDS011;33947;46.804;134.252;2023-06-19T14:07:25;11.18;;;3.97;;
46845;SDS011;33947;46.804;134.252;2023-06-19T14:10:46;11.00;;;3.33;;
46845;SDS011;33947;46.804;134.252;2023-06-19T14:13:54;7.63;;;3.35;;
46845;SDS011;33947;46.804;134.252;2023-06-19T14:17:01;10.18;;;3.20;;
46845;SDS011;33947;46.804;134.252;2023-06-19T14:20:10;10.07;;;3.38;;
46845;SDS011;33947;46.804;134.252;2023-06-19T14:23:25;7.00;;;4.07;;
46845;SDS011;33947;46.804;134.252;2023-06-19T14:26:31;11.70;;;3.40;;
46845;SDS011;33947;46.804;134.252;2023-06-19T14:29:38;9.05;;;3.60;;
46845;SDS011;33947;46.804;134.252;2023-06-19T14:32:44;8.70;;;3.17;;
46845;SDS011;33947;46.804;134.252;2023-06-19T14:35:50;8.23;;;3.55;;
46845;SDS011;33947;46.804;134.252;2023-06-19T14:38:59;4.30;;;3.15;;
46845;SDS011;33947;46.804;134.252;2023-06-19T14:42:09;6.00;;;3.53;;
46845;SDS011;33947;46.804;134.252;2023-06-19T14:45:17;5.45;;;3.22;;
46845;SDS011;33947;46.804;134.252;2023-06-19T14:48:23;5.07;;;3.35;;
46845;SDS011;33947;46.804;134.252;2023-06-19T14:51:30;7.05;;;3.47;;
46845;SDS011;33947;46.804;134.252;2023-06-19T14:54:36;11.77;;;3.80;;
46845;SDS011;33947;46.804;134.252;2023-06-19T14:57:52;6.38;;;3.20;;
46845;SDS011;33947;46.804;134.252;2023-06-19T15:01:04;8.48;;;3.58;;
46845;SDS011;33947;46.804;134.252;2023-06-19T15:04:27;8.65;;;3.75;;
46845;SDS011;33947;46.804;134.252;2023-06-19T15:07:47;12.82;;;3.75;;
46845;SDS011;33947;46.804;134.252;2023-06-19T15:11:02;7.40;;;3.10;;
46845;SDS011;33947;46.804;134.252;2023-06-19T15:14:10;8.85;;;3.50;;
46845;SDS011;33947;46.804;134.252;2023-06-19T15:17:22;12.40;;;3.08;;
46845;SDS011;33947;46.804;134.252;2023-06-19T15:20:55;4.85;;;3.10;;
46845;SDS011;33947;46.804;134.252;2023-06-19T15:24:13;8.55;;;3.72;;
46845;SDS011;33947;46.804;134.252;2023-06-19T15:27:20;6.80;;;3.40;;
46845;SDS011;33947;46.804;134.252;2023-06-19T15:30:26;7.95;;;3.20;;
46845;SDS011;33947;46.804;134.252;2023-06-19T15:33:34;8.38;;;3.70;;
46845;SDS011;33947;46.804;134.252;2023-06-19T15:36:45;7.60;;;3.85;;
46845;SDS011;33947;46.804;134.252;2023-06-19T15:39:54;8.05;;;3.60;;
46845;SDS011;33947;46.804;134.252;2023-06-19T15:43:00;12.13;;;3.47;;
46845;SDS011;33947;46.804;134.252;2023-06-19T15:46:06;6.72;;;3.25;;
46845;SDS011;33947;46.804;134.252;2023-06-19T15:49:13;7.43;;;3.45;;
46845;SDS011;33947;46.804;134.252;2023-06-19T15:52:20;17.65;;;3.80;;
46845;SDS011;33947;46.804;134.252;2023-06-19T15:55:29;10.60;;;3.92;;
46845;SDS011;33947;46.804;134.252;2023-06-19T15:58:38;11.05;;;3.80;;
46845;SDS011;33947;46.804;134.252;2023-06-19T16:01:44;9.65;;;3.50;;
46845;SDS011;33947;46.804;134.252;2023-06-19T16:04:51;9.48;;;3.60;;
46845;SDS011;33947;46.804;134.252;2023-06-19T16:08:05;11.82;;;4.00;;
46845;SDS011;33947;46.804;134.252;2023-06-19T16:11:17;7.80;;;3.80;;
46845;SDS011;33947;46.804;134.252;2023-06-19T16:14:23;9.52;;;3.63;;
46845;SDS011;33947;46.804;134.252;2023-06-19T16:17:29;8.30;;;3.33;;
46845;SDS011;33947;46.804;134.252;2023-06-19T16:20:38;9.38;;;3.75;;
46845;SDS011;33947;46.804;134.252;2023-06-19T16:23:44;9.05;;;3.47;;
46845;SDS011;33947;46.804;134.252;2023-06-19T16:26:52;5.25;;;3.47;;
46845;SDS011;33947;46.804;134.252;2023-06-19T16:30:03;10.57;;;3.70;;
46845;SDS011;33947;46.804;134.252;2023-06-19T16:33:10;8.85;;;4.70;;
46845;SDS011;33947;46.804;134.252;2023-06-19T16:36:17;10.10;;;4.10;;
46845;SDS011;33947;46.804;134.252;2023-06-19T16:39:31;9.57;;;4.28;;
46845;SDS011;33947;46.804;134.252;2023-06-19T16:42:40;9.30;;;4.45;;
46845;SDS011;33947;46.804;134.252;2023-06-19T16:45:48;8.85;;;4.25;;
46845;SDS011;33947;46.804;134.252;2023-06-19T16:49:12;17.77;;;4.63;;
46845;SDS011;33947;46.804;134.252;2023-06-19T16:52:41;14.15;;;4.32;;
46845;SDS011;33947;46.804;134.252;2023-06-19T16:56:04;10.82;;;4.13;;
46845;SDS011;33947;46.804;134.252;2023-06-19T16:59:35;6.28;;;3.55;;
46845;SDS011;33947;46.804;134.252;2023-06-19T17:03:03;8.60;;;4.00;;
46845;SDS011;33947;46.804;134.252;2023-06-19T17:06:53;8.93;;;3.90;;
46845;SDS011;33947;46.804;134.252;2023-06-19T17:15:08;11.30;;;4.15;;
46845;SDS011;33947;46.804;134.252;2023-06-19T17:18:50;18.58;;;4.43;;
46845;SDS011;33947;46.804;134.252;2023-06-19T17:22:42;7.25;;;3.90;;
46845;SDS011;33947;46.804;134.252;2023-06-19T17:25:56;6.65;;;3.95;;
46845;SDS011;33947;46.804;134.252;2023-06-19T17:29:02;6.97;;;4.40;;
46845;SDS011;33947;46.804;134.252;2023-06-19T17:32:09;8.75;;;4.20;;
46845;SDS011;33947;46.804;134.252;2023-06-19T17:35:16;7.43;;;4.00;;
46845;SDS011;33947;46.804;134.252;2023-06-19T17:38:26;8.75;;;3.90;;
46845;SDS011;33947;46.804;134.252;2023-06-19T17:41:32;8.43;;;3.85;;
46845;SDS011;33947;46.804;134.252;2023-06-19T17:44:43;12.02;;;3.70;;
46845;SDS011;33947;46.804;134.252;2023-06-19T17:47:52;6.97;;;3.83;;
46845;SDS011;33947;46.804;134.252;2023-06-19T17:51:01;9.20;;;3.65;;
46845;SDS011;33947;46.804;134.252;2023-06-19T17:54:08;7.50;;;3.75;;
46845;SDS011;33947;46.804;134.252;2023-06-19T17:57:17;8.38;;;4.07;;
46845;SDS011;33947;46.804;134.252;2023-06-19T18:00:24;8.95;;;3.85;;
46845;SDS011;33947;46.804;134.252;2023-06-19T18:03:31;7.43;;;3.45;;
46845;SDS011;33947;46.804;134.252;2023-06-19T18:13:17;7.65;;;3.58;;
46845;SDS011;33947;46.804;134.252;2023-06-19T18:16:26;10.20;;;3.90;;
46845;SDS011;33947;46.804;134.252;2023-06-19T18:19:32;6.90;;;4.20;;
46845;SDS011;33947;46.804;134.252;2023-06-19T18:22:38;8.35;;;3.45;;
46845;SDS011;33947;46.804;134.252;2023-06-19T18:25:44;8.82;;;3.65;;
46845;SDS011;33947;46.804;134.252;2023-06-19T18:28:50;7.35;;;3.65;;
46845;SDS011;33947;46.804;134.252;2023-06-19T18:31:56;6.05;;;3.45;;
46845;SDS011;33947;46.804;134.252;2023-06-19T18:35:06;11.48;;;3.88;;
46845;SDS011;33947;46.804;134.252;2023-06-19T18:38:12;8.63;;;4.18;;
46845;SDS011;33947;46.804;134.252;2023-06-19T18:41:19;10.80;;;3.80;;
46845;SDS011;33947;46.804;134.252;2023-06-19T18:44:25;8.85;;;4.68;;
46845;SDS011;33947;46.804;134.252;2023-06-19T18:47:34;10.13;;;4.28;;
46845;SDS011;33947;46.804;134.252;2023-06-19T18:50:40;6.80;;;4.30;;
46845;SDS011;33947;46.804;134.252;2023-06-19T18:53:49;8.68;;;3.53;;
46845;SDS011;33947;46.804;134.252;2023-06-19T18:56:55;9.45;;;3.65;;
46845;SDS011;33947;46.804;134.252;2023-06-19T19:00:01;15.15;;;4.15;;
46845;SDS011;33947;46.804;134.252;2023-06-19T19:03:08;8.35;;;3.90;;
46845;SDS011;33947;46.804;134.252;2023-06-19T19:06:13;6.18;;;4.10;;
46845;SDS011;33947;46.804;134.252;2023-06-19T19:09:22;7.57;;;3.60;;
46845;SDS011;33947;46.804;134.252;2023-06-19T19:12:28;11.40;;;4.25;;
46845;SDS011;33947;46.804;134.252;2023-06-19T19:15:34;9.05;;;3.70;;
46845;SDS011;33947;46.804;134.252;2023-06-19T19:18:41;4.05;;;3.10;;
46845;SDS011;33947;46.804;134.252;2023-06-19T19:21:48;6.18;;;3.63;;
46845;SDS011;33947;46.804;134.252;2023-06-19T19:24:55;5.00;;;3.20;;
46845;SDS011;33947;46.804;134.252;2023-06-19T19:28:07;7.72;;;2.90;;
46845;SDS011;33947;46.804;134.252;2023-06-19T19:31:18;9.95;;;3.10;;
46845;SDS011;33947;46.804;134.252;2023-06-19T19:34:24;5.68;;;3.00;;
46845;SDS011;33947;46.804;134.252;2023-06-19T19:37:31;5.07;;;2.78;;
46845;SDS011;33947;46.804;134.252;2023-06-19T19:40:36;5.75;;;2.80;;
46845;SDS011;33947;46.804;134.252;2023-06-19T19:43:43;7.10;;;2.85;;
46845;SDS011;33947;46.804;134.252;2023-06-19T19:46:49;4.72;;;2.70;;
46845;SDS011;33947;46.804;134.252;2023-06-19T19:49:56;4.85;;;3.00;;
46845;SDS011;33947;46.804;134.252;2023-06-19T19:53:02;4.93;;;3.13;;
46845;SDS011;33947;46.804;134.252;2023-06-19T19:56:09;5.88;;;3.60;;
46845;SDS011;33947;46.804;134.252;2023-06-19T19:59:14;4.25;;;3.00;;
46845;SDS011;33947;46.804;134.252;2023-06-19T20:02:21;6.80;;;3.72;;
46845;SDS011;33947;46.804;134.252;2023-06-19T20:05:25;4.90;;;2.92;;
46845;SDS011;33947;46.804;134.252;2023-06-19T20:08:32;4.68;;;3.05;;
46845;SDS011;33947;46.804;134.252;2023-06-19T20:11:41;11.10;;;4.03;;
46845;SDS011;33947;46.804;134.252;2023-06-19T20:15:01;4.80;;;3.08;;
46845;SDS011;33947;46.804;134.252;2023-06-19T20:18:12;5.80;;;3.35;;
46845;SDS011;33947;46.804;134.252;2023-06-19T20:21:22;5.22;;;3.58;;
46845;SDS011;33947;46.804;134.252;2023-06-19T20:24:55;4.60;;;3.65;;